Time;durP1;ratioP1;P1;durP2;ratioP2;P2;SDS_P1;SDS_P2;PMS_P1;PMS_P2;Temp;Humidity;BMP_temperature;BMP_pressure;BME280_temperature;BME280_humidity;BME280_pressure;Samples;Min_cycle;Max_cycle;Signal;HPM_P1;HPM_P2
2022/09/04 00:01:56;;;;;;;5.15;1.55;;;15.70;91.70;;;;;;5056024;28;20048;-71
2022/09/04 00:04:55;;;;;;;3.67;1.63;;;15.70;91.90;;;;;;5055711;28;20170;-72
2022/09/04 00:07:28;;;;;;;4.32;1.77;;;15.70;92.10;;;;;;5055882;28;20049;-73
2022/09/04 00:10:02;;;;;;;3.75;1.52;;;15.70;92.00;;;;;;5038485;28;20094;-71
2022/09/04 00:12:37;;;;;;;5.75;1.55;;;15.60;92.00;;;;;;5055856;28;20049;-72
2022/09/04 00:15:02;;;;;;;6.55;1.77;;;15.50;92.20;;;;;;5055912;28;20049;-71
2022/09/04 00:17:45;;;;;;;5.93;1.95;;;15.50;92.10;;;;;;5055945;28;20095;-72
2022/09/04 00:20:39;;;;;;;4.38;1.50;;;15.50;92.30;;;;;;5055151;28;20428;-71
2022/09/04 00:23:11;;;;;;;5.13;1.70;;;15.40;92.20;;;;;;5056144;28;20396;-72
2022/09/04 00:25:39;;;;;;;3.80;1.80;;;15.30;92.20;;;;;;5055722;28;20107;-70
2022/09/04 00:28:31;;;;;;;2.80;1.50;;;15.30;92.30;;;;;;5056383;28;20369;-71
2022/09/04 00:31:16;;;;;;;5.82;2.00;;;15.30;92.50;;;;;;5028664;28;20084;-71
2022/09/04 00:33:53;;;;;;;4.38;1.88;;;15.20;92.60;;;;;;5055380;28;20044;-73
2022/09/04 00:36:23;;;;;;;4.45;1.67;;;15.20;92.60;;;;;;5055194;28;20080;-73
2022/09/04 00:38:55;;;;;;;4.97;1.60;;;15.10;92.60;;;;;;5055130;28;20049;-70
2022/09/04 00:41:37;;;;;;;2.83;1.50;;;15.10;92.70;;;;;;5038454;28;20084;-73
2022/09/04 00:44:25;;;;;;;3.25;1.67;;;15.10;92.80;;;;;;5037611;28;20492;-71
2022/09/04 00:47:19;;;;;;;4.95;2.13;;;15.10;92.90;;;;;;5055292;28;20064;-72
2022/09/04 00:50:22;;;;;;;4.15;2.03;;;15.00;92.90;;;;;;5033039;28;20088;-70
2022/09/04 00:53:04;;;;;;;5.20;1.83;;;15.00;92.80;;;;;;5055300;28;20045;-72
2022/09/04 00:55:43;;;;;;;4.32;1.63;;;14.90;92.90;;;;;;5054979;28;20051;-72
2022/09/04 00:58:20;;;;;;;3.88;1.67;;;14.90;93.00;;;;;;5054920;28;20076;-71
2022/09/04 01:00:46;;;;;;;3.38;1.65;;;14.90;93.00;;;;;;5055367;28;20067;-72
2022/09/04 01:03:17;;;;;;;4.80;1.75;;;14.80;93.10;;;;;;5054790;28;20120;-71
2022/09/04 01:06:00;;;;;;;3.67;1.58;;;14.80;93.20;;;;;;5054723;28;20041;-71
2022/09/04 01:09:03;;;;;;;4.03;1.83;;;14.80;93.40;;;;;;5054823;28;20536;-71
2022/09/04 01:12:05;;;;;;;3.97;2.10;;;14.80;93.60;;;;;;5055292;28;20132;-71
2022/09/04 01:14:54;;;;;;;4.45;2.10;;;14.70;93.50;;;;;;5054831;28;20053;-70
2022/09/04 01:17:21;;;;;;;5.40;2.00;;;14.70;93.30;;;;;;5055014;28;20049;-72
2022/09/04 01:20:34;;;;;;;5.80;2.00;;;14.60;93.30;;;;;;5054778;28;20049;-71
2022/09/04 01:23:29;;;;;;;4.28;1.80;;;14.60;93.30;;;;;;5008979;28;20103;-72
2022/09/04 01:26:07;;;;;;;4.32;1.90;;;14.60;93.50;;;;;;5055052;28;20496;-71
2022/09/04 01:29:02;;;;;;;3.40;1.60;;;14.60;93.60;;;;;;5054674;28;20053;-71
2022/09/04 01:31:51;;;;;;;3.33;1.77;;;14.50;93.60;;;;;;5054724;28;20056;-72
2022/09/04 01:34:26;;;;;;;5.07;2.13;;;14.50;93.70;;;;;;5037101;28;20114;-70
2022/09/04 01:37:18;;;;;;;4.60;2.10;;;14.50;93.70;;;;;;5054040;28;20072;-72
2022/09/04 01:39:47;;;;;;;6.00;2.15;;;14.40;93.90;;;;;;5054642;28;20056;-71
2022/09/04 01:42:37;;;;;;;5.15;2.17;;;14.40;94.00;;;;;;5054660;28;20049;-73
2022/09/04 01:45:04;;;;;;;6.95;2.25;;;14.30;94.00;;;;;;5054733;28;20041;-71
2022/09/04 01:47:44;;;;;;;6.18;2.20;;;14.30;94.00;;;;;;5054572;28;20136;-71
2022/09/04 01:50:18;;;;;;;6.10;2.13;;;14.30;94.20;;;;;;5037068;28;20106;-71
2022/09/04 01:52:49;;;;;;;;;;;14.30;94.20;;;;;;5054748;28;20052;-72
2022/09/04 01:55:35;;;;;;;3.53;2.15;;;14.30;94.20;;;;;;5003097;28;19921;-73
2022/09/04 01:58:14;;;;;;;4.32;2.22;;;14.20;94.20;;;;;;5054373;28;20048;-72
2022/09/04 02:01:09;;;;;;;8.10;2.08;;;14.20;94.40;;;;;;5054434;28;20065;-72
2022/09/04 02:03:45;;;;;;;4.70;2.00;;;14.20;94.60;;;;;;5053842;28;20123;-72
2022/09/04 02:06:32;;;;;;;6.30;2.45;;;14.20;94.30;;;;;;5054268;28;20127;-72
2022/09/04 02:09:28;;;;;;;3.50;1.92;;;14.10;94.50;;;;;;5055599;28;20190;-71
2022/09/04 02:12:18;;;;;;;5.50;2.05;;;14.10;94.50;;;;;;5058245;28;20041;-72
2022/09/04 02:15:02;;;;;;;8.55;2.60;;;14.10;94.70;;;;;;5057997;28;20094;-73
2022/09/04 02:17:44;;;;;;;6.07;2.20;;;14.10;94.60;;;;;;5057878;28;20456;-71
2022/09/04 02:20:28;;;;;;;13.88;2.40;;;14.00;95.00;;;;;;5058212;28;20119;-70
2022/09/04 02:23:06;;;;;;;6.15;2.20;;;13.90;95.00;;;;;;5057602;28;20103;-70
2022/09/04 02:25:52;;;;;;;3.80;2.00;;;13.90;95.10;;;;;;5040403;28;20060;-70
2022/09/04 02:28:46;;;;;;;4.28;2.22;;;13.90;95.10;;;;;;5040072;28;20056;-70
2022/09/04 02:31:18;;;;;;;5.05;1.98;;;13.90;95.00;;;;;;5057695;28;20056;-69
2022/09/04 02:33:54;;;;;;;4.20;2.37;;;13.80;95.10;;;;;;5057677;28;20055;-69
2022/09/04 02:36:43;;;;;;;9.48;2.45;;;13.90;95.20;;;;;;5057215;28;20472;-69
2022/09/04 02:39:41;;;;;;;4.60;2.40;;;13.80;95.40;;;;;;5057781;28;20060;-69
2022/09/04 02:42:41;;;;;;;11.75;2.50;;;13.80;95.20;;;;;;5057570;28;20053;-68
2022/09/04 02:45:21;;;;;;;4.55;2.28;;;13.80;95.50;;;;;;5040331;28;20370;-69
2022/09/04 02:47:51;;;;;;;5.05;2.33;;;13.80;95.90;;;;;;5040019;28;20041;-70
2022/09/04 02:50:49;;;;;;;4.45;2.15;;;13.70;95.70;;;;;;5057138;28;20045;-70
2022/09/04 02:53:36;;;;;;;5.28;2.22;;;13.70;95.70;;;;;;5019970;28;20053;-70
2022/09/04 02:56:30;;;;;;;4.95;2.45;;;13.70;95.60;;;;;;5037374;28;20045;-70
2022/09/04 02:59:33;;;;;;;5.32;2.47;;;13.70;95.80;;;;;;5037600;28;20049;-69
2022/09/04 03:02:04;;;;;;;6.90;2.00;;;13.70;96.20;;;;;;5037685;28;20041;-68
2022/09/04 03:04:51;;;;;;;5.93;2.35;;;13.70;95.80;;;;;;5020158;28;20053;-71
2022/09/04 03:07:41;;;;;;;6.15;2.20;;;13.70;96.00;;;;;;5052644;28;20125;-70
2022/09/04 03:10:18;;;;;;;6.18;2.40;;;13.60;96.30;;;;;;5057549;28;20037;-69
2022/09/04 03:12:59;;;;;;;5.72;2.60;;;13.60;95.90;;;;;;5056975;28;20056;-68
2022/09/04 03:15:45;;;;;;;8.88;2.75;;;13.60;96.00;;;;;;5057163;28;20071;-70
2022/09/04 03:18:15;;;;;;;7.07;2.38;;;13.60;96.40;;;;;;5039141;28;20045;-68
2022/09/04 03:20:57;;;;;;;5.30;2.00;;;13.50;96.10;;;;;;5056789;28;20059;-69
2022/09/04 03:23:31;;;;;;;3.42;2.10;;;13.60;96.20;;;;;;5042598;28;20449;-68
2022/09/04 03:25:59;;;;;;;4.68;2.20;;;13.60;96.20;;;;;;5057162;28;20045;-70
2022/09/04 03:28:43;;;;;;;4.53;2.20;;;13.60;96.20;;;;;;5057061;28;20041;-70
2022/09/04 03:31:29;;;;;;;5.57;2.40;;;13.40;96.40;;;;;;5056722;28;20041;-69
2022/09/04 03:34:11;;;;;;;5.15;2.30;;;13.40;96.70;;;;;;5039132;28;20071;-70
2022/09/04 03:37:06;;;;;;;4.05;1.95;;;13.40;96.70;;;;;;5056328;28;20061;-69
2022/09/04 03:39:51;;;;;;;8.40;2.60;;;13.30;96.60;;;;;;5056555;28;20061;-68
2022/09/04 03:42:43;;;;;;;6.43;2.20;;;13.30;96.60;;;;;;5056495;28;20441;-69
2022/09/04 03:45:19;;;;;;;7.43;2.47;;;13.20;96.70;;;;;;5056769;28;20510;-69
2022/09/04 03:47:57;;;;;;;5.65;2.70;;;13.20;96.80;;;;;;5056632;28;20048;-68
2022/09/04 03:50:22;;;;;;;7.10;2.60;;;13.20;97.40;;;;;;5056503;28;20468;-70
2022/09/04 03:52:54;;;;;;;4.95;2.50;;;13.10;97.00;;;;;;5055731;28;20048;-69
2022/09/04 03:55:56;;;;;;;5.38;2.20;;;13.10;97.60;;;;;;5056116;28;20088;-70
2022/09/04 03:58:40;;;;;;;6.95;2.63;;;13.10;97.40;;;;;;5056373;28;20540;-69
2022/09/04 04:01:16;;;;;;;4.72;2.50;;;13.10;97.50;;;;;;5038709;28;20049;-69
2022/09/04 04:04:03;;;;;;;4.10;2.40;;;13.00;97.30;;;;;;5055626;28;20477;-69
2022/09/04 04:06:37;;;;;;;5.03;2.60;;;13.00;97.40;;;;;;5056289;28;20373;-69
2022/09/04 04:09:24;;;;;;;4.72;2.65;;;13.00;97.50;;;;;;5055994;28;20084;-70
2022/09/04 04:11:53;;;;;;;7.20;2.38;;;13.00;97.50;;;;;;5055929;28;20060;-70
2022/09/04 04:14:40;;;;;;;5.93;2.92;;;12.90;97.50;;;;;;5055852;28;20453;-70
2022/09/04 04:17:30;;;;;;;5.72;2.60;;;12.90;97.80;;;;;;5056073;28;20405;-70
2022/09/04 04:20:26;;;;;;;8.70;2.80;;;12.80;97.90;;;;;;5055656;28;20056;-69
2022/09/04 04:23:06;;;;;;;8.48;2.70;;;12.80;98.00;;;;;;5055724;28;20055;-69
2022/09/04 04:26:02;;;;;;;6.85;2.80;;;12.80;98.10;;;;;;5038250;28;20049;-69
2022/09/04 04:28:55;;;;;;;7.10;2.53;;;12.80;98.40;;;;;;5056014;28;20049;-69
2022/09/04 04:31:43;;;;;;;5.57;3.00;;;12.80;98.30;;;;;;5037859;28;20049;-69
2022/09/04 04:34:12;;;;;;;5.15;2.42;;;12.80;98.40;;;;;;5055302;28;20445;-68
2022/09/04 04:37:03;;;;;;;5.20;2.70;;;12.70;98.30;;;;;;5055447;28;20057;-70
2022/09/04 04:39:43;;;;;;;3.83;2.28;;;12.70;98.50;;;;;;5055246;28;20103;-70
2022/09/04 04:42:41;;;;;;;6.25;2.78;;;12.70;98.40;;;;;;5055594;28;20044;-69
2022/09/04 04:45:49;;;;;;;6.80;2.75;;;12.70;98.60;;;;;;5051081;28;20057;-68
2022/09/04 04:48:17;;;;;;;7.55;2.85;;;12.70;98.50;;;;;;5024037;28;20053;-68
2022/09/04 04:51:07;;;;;;;4.55;2.60;;;12.70;98.50;;;;;;5054931;28;20048;-70
2022/09/04 04:54:21;;;;;;;4.63;2.90;;;12.70;98.80;;;;;;5037734;28;20056;-68
2022/09/04 04:57:17;;;;;;;5.55;3.00;;;12.70;99.10;;;;;;5015130;28;20106;-69
2022/09/04 04:59:50;;;;;;;5.93;2.97;;;12.70;99.10;;;;;;5055423;28;20103;-70
2022/09/04 05:02:27;;;;;;;3.95;2.30;;;12.70;98.90;;;;;;5037753;28;20053;-69
2022/09/04 05:05:02;;;;;;;6.05;2.95;;;12.70;99.10;;;;;;5055458;28;20055;-69
2022/09/04 05:07:47;;;;;;;4.50;2.60;;;12.70;99.10;;;;;;5054635;28;20048;-71
2022/09/04 05:10:31;;;;;;;6.53;2.67;;;12.70;99.10;;;;;;5037485;28;20044;-68
2022/09/04 05:13:21;;;;;;;6.53;2.70;;;12.70;99.50;;;;;;5054830;28;20056;-70
2022/09/04 05:16:00;;;;;;;6.32;2.80;;;12.70;99.50;;;;;;5037276;28;20057;-69
2022/09/04 05:19:04;;;;;;;5.38;2.97;;;12.70;99.30;;;;;;5055685;28;20055;-67
2022/09/04 05:21:42;;;;;;;7.35;2.97;;;12.80;99.70;;;;;;5039414;28;20532;-70
2022/09/04 05:24:31;;;;;;;5.68;2.78;;;12.80;99.40;;;;;;5047094;28;20415;-71
2022/09/04 05:27:24;;;;;;;7.75;2.90;;;12.90;99.50;;;;;;5003459;28;20088;-69
2022/09/04 05:30:09;;;;;;;5.37;2.63;;;12.90;99.60;;;;;;5034856;28;20107;-70
2022/09/04 05:32:55;;;;;;;5.90;2.90;;;12.90;99.60;;;;;;5034455;28;20450;-71
2022/09/04 05:35:47;;;;;;;7.68;3.13;;;13.00;99.80;;;;;;5041066;28;20055;-69
2022/09/04 05:38:12;;;;;;;4.70;2.53;;;13.00;99.80;;;;;;5054129;28;20045;-72
2022/09/04 05:41:10;;;;;;;5.15;2.60;;;13.00;99.80;;;;;;5053504;28;20056;-68
2022/09/04 05:43:53;;;;;;;7.05;2.83;;;13.10;99.80;;;;;;5054654;28;20045;-69
2022/09/04 05:46:25;;;;;;;7.57;2.90;;;13.20;99.70;;;;;;5058519;28;20108;-70
2022/09/04 05:49:14;;;;;;;4.63;3.20;;;13.30;99.80;;;;;;5057846;28;20071;-71
2022/09/04 05:52:17;;;;;;;8.55;2.80;;;13.40;99.70;;;;;;5058325;28;20048;-70
2022/09/04 05:55:09;;;;;;;6.95;3.00;;;13.50;99.70;;;;;;5057905;28;20045;-69
2022/09/04 05:57:34;;;;;;;5.85;2.97;;;13.60;99.40;;;;;;5057319;28;20115;-69
2022/09/04 06:00:15;;;;;;;4.45;3.00;;;13.80;99.40;;;;;;5057857;28;20450;-69
2022/09/04 06:03:02;;;;;;;4.88;2.92;;;13.90;99.10;;;;;;5058126;28;20041;-70
2022/09/04 06:05:55;;;;;;;10.93;2.80;;;14.00;98.80;;;;;;5056461;28;20049;-70
2022/09/04 06:08:38;;;;;;;5.97;3.00;;;14.10;98.80;;;;;;5058417;28;20095;-70
2022/09/04 06:11:38;;;;;;;8.82;2.65;;;14.30;98.70;;;;;;5058176;28;20045;-69
2022/09/04 06:14:33;;;;;;;4.47;2.70;;;14.60;98.30;;;;;;5058169;28;20361;-70
2022/09/04 06:17:18;;;;;;;11.38;3.33;;;15.10;98.40;;;;;;5058614;28;20044;-71
2022/09/04 06:19:55;;;;;;;12.60;2.65;;;16.10;98.30;;;;;;5040307;28;20091;-70
2022/09/04 06:22:39;;;;;;;6.90;2.65;;;17.10;96.40;;;;;;5058155;28;20081;-71
2022/09/04 06:25:20;;;;;;;6.78;2.35;;;17.90;95.30;;;;;;5061290;28;20143;-72
2022/09/04 06:27:50;;;;;;;4.93;2.42;;;18.70;94.00;;;;;;5056577;28;20374;-72
2022/09/04 06:30:16;;;;;;;6.60;2.40;;;19.40;93.30;;;;;;5051479;28;20033;-71
2022/09/04 06:33:11;;;;;;;3.72;2.50;;;19.80;93.00;;;;;;5052926;28;20049;-71
2022/09/04 06:36:03;;;;;;;5.75;2.70;;;20.20;91.60;;;;;;5048826;28;20413;-70
2022/09/04 06:38:48;;;;;;;5.60;2.67;;;20.30;91.30;;;;;;5037607;28;20092;-71
2022/09/04 06:41:42;;;;;;;4.45;2.50;;;19.60;91.00;;;;;;5051421;28;20056;-72
2022/09/04 06:44:30;;;;;;;6.30;2.60;;;19.30;91.60;;;;;;5037452;28;20361;-70
2022/09/04 06:47:20;;;;;;;3.85;2.40;;;18.70;91.70;;;;;;5037515;28;20049;-71
2022/09/04 06:50:04;;;;;;;4.47;2.80;;;18.10;92.30;;;;;;5040537;28;20102;-71
2022/09/04 06:52:59;;;;;;;6.53;2.50;;;17.80;93.10;;;;;;5038259;28;20315;-71
2022/09/04 06:55:53;;;;;;;5.55;2.70;;;17.40;93.30;;;;;;5036547;28;20057;-71
2022/09/04 06:58:43;;;;;;;4.13;2.45;;;17.30;93.70;;;;;;5009151;28;20085;-72
2022/09/04 07:01:39;;;;;;;7.10;2.78;;;17.10;93.90;;;;;;5037148;28;20045;-72
2022/09/04 07:04:35;;;;;;;3.95;2.53;;;17.00;94.10;;;;;;5054118;28;20120;-72
2022/09/04 07:07:15;;;;;;;5.07;3.05;;;17.00;94.20;;;;;;5038946;28;20132;-71
2022/09/04 07:09:48;;;;;;;5.28;2.55;;;17.00;94.40;;;;;;5037081;28;20184;-72
2022/09/04 07:12:29;;;;;;;6.38;2.70;;;17.00;94.40;;;;;;5049518;28;20385;-70
2022/09/04 07:15:23;;;;;;;13.52;3.13;;;16.90;94.50;;;;;;5036604;28;20103;-72
2022/09/04 07:18:05;;;;;;;6.47;2.78;;;16.90;94.90;;;;;;5031027;28;20470;-71
2022/09/04 07:20:53;;;;;;;9.27;2.72;;;17.00;94.60;;;;;;5047520;28;20048;-71
2022/09/04 07:23:29;;;;;;;7.88;3.17;;;17.00;94.40;;;;;;5049384;28;20037;-71
2022/09/04 07:26:18;;;;;;;5.25;2.72;;;17.10;94.60;;;;;;5059552;28;20451;-72
2022/09/04 07:29:18;;;;;;;6.63;2.45;;;17.20;94.70;;;;;;5049024;28;20060;-70
2022/09/04 07:32:00;;;;;;;4.88;2.78;;;17.30;94.90;;;;;;5023127;28;20049;-70
2022/09/04 07:34:52;;;;;;;5.30;2.90;;;17.50;94.90;;;;;;5042512;28;20055;-71
2022/09/04 07:37:38;;;;;;;5.72;2.80;;;17.50;94.50;;;;;;5027735;28;20049;-70
2022/09/04 07:40:15;;;;;;;6.20;2.33;;;17.70;94.70;;;;;;5035807;28;20052;-71
2022/09/04 07:42:46;;;;;;;5.75;3.10;;;17.70;94.40;;;;;;5036574;28;20069;-71
2022/09/04 07:45:33;;;;;;;6.53;2.80;;;17.70;94.00;;;;;;5036247;28;20049;-70
2022/09/04 07:48:13;;;;;;;9.70;3.00;;;17.70;94.10;;;;;;5045526;28;20347;-71
2022/09/04 07:51:02;;;;;;;4.68;2.47;;;17.80;94.10;;;;;;5042207;28;20354;-71
2022/09/04 07:53:52;;;;;;;5.32;2.45;;;17.90;94.40;;;;;;5036303;28;20060;-71
2022/09/04 07:56:24;;;;;;;4.63;2.50;;;18.00;94.30;;;;;;5031390;28;20084;-72
2022/09/04 07:59:15;;;;;;;6.85;2.97;;;18.10;94.10;;;;;;5037017;28;20049;-72
2022/09/04 08:02:00;;;;;;;5.63;2.60;;;18.10;94.00;;;;;;5044797;28;20437;-71
2022/09/04 08:05:10;;;;;;;5.35;2.65;;;18.20;94.20;;;;;;5048102;28;20081;-72
2022/09/04 08:07:39;;;;;;;4.07;2.28;;;18.30;94.20;;;;;;5042632;28;20357;-72
2022/09/04 08:10:19;;;;;;;4.60;2.40;;;18.50;94.30;;;;;;5055577;28;20073;-71
2022/09/04 08:12:53;;;;;;;5.03;2.65;;;18.50;93.90;;;;;;5038540;28;20053;-71
2022/09/04 08:15:24;;;;;;;5.85;2.83;;;18.60;94.30;;;;;;5038335;28;20046;-71
2022/09/04 08:18:05;;;;;;;5.38;2.42;;;18.80;94.10;;;;;;5027116;28;20053;-72
2022/09/04 08:20:48;;;;;;;4.70;2.17;;;18.90;94.10;;;;;;5041786;28;20132;-70
2022/09/04 08:23:41;;;;;;;7.63;2.22;;;19.10;94.00;;;;;;5049567;28;20049;-70
2022/09/04 08:26:48;;;;;;;5.35;2.75;;;19.30;94.10;;;;;;5046516;28;20121;-70
2022/09/04 08:29:38;;;;;;;12.35;2.50;;;19.50;93.90;;;;;;5047901;28;20082;-72
2022/09/04 08:32:23;;;;;;;6.40;2.20;;;19.60;93.50;;;;;;5035114;28;20053;-71
2022/09/04 08:35:16;;;;;;;10.93;2.60;;;19.70;93.60;;;;;;5035284;28;20045;-70
2022/09/04 08:38:04;;;;;;;4.63;2.30;;;19.80;93.10;;;;;;5045014;28;20140;-70
2022/09/04 08:41:11;;;;;;;10.65;2.53;;;19.90;93.70;;;;;;5048464;28;20049;-71
2022/09/04 08:44:14;;;;;;;4.78;2.38;;;20.00;93.30;;;;;;5035101;28;20132;-71
2022/09/04 08:46:45;;;;;;;5.90;2.28;;;20.30;93.00;;;;;;5019814;28;20053;-71
2022/09/04 08:49:32;;;;;;;3.85;2.20;;;20.60;93.30;;;;;;5035113;28;20127;-70
2022/09/04 08:52:10;;;;;;;9.90;2.42;;;21.30;92.80;;;;;;5040691;28;20033;-70
2022/09/04 08:55:04;;;;;;;4.63;2.00;;;21.60;92.60;;;;;;5038625;28;20145;-71
2022/09/04 08:57:38;;;;;;;6.70;2.05;;;21.90;92.00;;;;;;5040763;28;20381;-71
2022/09/04 09:00:10;;;;;;;5.25;2.42;;;22.00;92.40;;;;;;5038456;28;20037;-71
2022/09/04 09:03:14;;;;;;;6.45;2.50;;;22.00;92.30;;;;;;5050378;28;20045;-76
2022/09/04 09:05:54;;;;;;;5.68;2.05;;;22.10;91.90;;;;;;5054410;28;20682;-71
2022/09/04 09:08:48;;;;;;;6.53;2.28;;;22.10;91.90;;;;;;5050010;28;20060;-71
2022/09/04 09:11:34;;;;;;;4.15;1.90;;;22.10;91.40;;;;;;5053798;28;20045;-70
2022/09/04 09:14:33;;;;;;;6.43;1.83;;;22.20;91.60;;;;;;5053434;28;20203;-70
2022/09/04 09:17:21;;;;;;;4.72;2.00;;;22.50;90.90;;;;;;5050480;28;20468;-69
2022/09/04 09:20:06;;;;;;;5.75;1.70;;;22.90;90.50;;;;;;5026838;28;20053;-69
2022/09/04 09:23:09;;;;;;;5.07;2.00;;;23.30;91.10;;;;;;5052636;28;20048;-70
2022/09/04 09:25:43;;;;;;;9.32;2.05;;;23.70;90.00;;;;;;5001479;28;20198;-68
2022/09/04 09:28:41;;;;;;;5.50;1.90;;;24.10;89.90;;;;;;5060294;28;20041;-72
2022/09/04 09:31:37;;;;;;;4.82;1.98;;;24.40;89.80;;;;;;5040465;28;20052;-69
2022/09/04 09:34:22;;;;;;;4.90;1.67;;;24.90;88.70;;;;;;5047900;28;20041;-71
2022/09/04 09:37:25;;;;;;;7.15;1.95;;;24.80;88.30;;;;;;5052505;28;20053;-69
2022/09/04 09:40:30;;;;;;;5.65;2.00;;;24.60;88.40;;;;;;5033876;28;20049;-70
2022/09/04 09:43:01;;;;;;;6.75;2.20;;;24.20;89.00;;;;;;5046332;28;20584;-71
2022/09/04 09:45:55;;;;;;;3.80;1.60;;;24.00;89.30;;;;;;5038231;28;20457;-69
2022/09/04 09:48:40;;;;;;;3.33;1.40;;;23.80;90.00;;;;;;5024034;28;20041;-70
2022/09/04 09:51:21;;;;;;;2.53;1.60;;;23.80;89.10;;;;;;5051492;28;20044;-69
2022/09/04 09:54:03;;;;;;;4.78;1.50;;;23.70;90.00;;;;;;5052546;28;20469;-69
2022/09/04 09:56:39;;;;;;;7.40;1.77;;;23.60;89.10;;;;;;5051419;28;20483;-70
2022/09/04 09:59:24;;;;;;;2.97;1.70;;;23.60;89.50;;;;;;5048692;28;20076;-70
2022/09/04 10:02:07;;;;;;;4.53;1.60;;;23.60;89.90;;;;;;5052000;28;20257;-69
2022/09/04 10:04:42;;;;;;;3.67;1.67;;;23.60;89.60;;;;;;5052337;28;20037;-69
2022/09/04 10:07:13;;;;;;;3.25;1.25;;;23.70;89.50;;;;;;5050627;28;20041;-70
2022/09/04 10:10:07;;;;;;;14.45;2.03;;;23.90;88.80;;;;;;5052806;28;20469;-69
2022/09/04 10:13:03;;;;;;;4.43;1.67;;;23.90;88.20;;;;;;5052186;28;20052;-70
2022/09/04 10:15:45;;;;;;;4.53;1.80;;;24.00;88.90;;;;;;5045290;28;20473;-70
2022/09/04 10:18:34;;;;;;;5.95;1.63;;;24.00;87.40;;;;;;5045936;28;20073;-69
2022/09/04 10:21:21;;;;;;;4.85;1.40;;;23.90;88.60;;;;;;5031945;28;20065;-70
2022/09/04 10:23:59;;;;;;;3.15;1.50;;;24.00;88.20;;;;;;5038441;28;20045;-69
2022/09/04 10:26:59;;;;;;;3.55;1.67;;;24.10;87.20;;;;;;5049654;28;20384;-70
2022/09/04 10:29:43;;;;;;;5.47;1.70;;;24.20;87.60;;;;;;5053940;28;20150;-68
2022/09/04 10:32:31;;;;;;;3.95;1.50;;;24.30;86.50;;;;;;5041832;28;20376;-68
2022/09/04 10:35:34;;;;;;;6.20;1.50;;;24.30;86.10;;;;;;5037361;28;20049;-69
2022/09/04 10:38:35;;;;;;;5.32;1.50;;;24.20;86.00;;;;;;5054243;28;20049;-68
2022/09/04 10:41:18;;;;;;;2.13;1.23;;;24.20;86.60;;;;;;5001020;28;20057;-69
2022/09/04 10:44:21;;;;;;;3.47;1.58;;;24.20;86.20;;;;;;5039394;28;20053;-69
2022/09/04 10:46:55;;;;;;;6.22;1.50;;;24.20;86.80;;;;;;5041188;28;20504;-69
2022/09/04 10:49:45;;;;;;;4.40;1.40;;;24.40;86.10;;;;;;5037014;28;20045;-68
2022/09/04 10:52:24;;;;;;;4.07;1.50;;;24.50;87.10;;;;;;5056376;28;20049;-69
2022/09/04 10:55:25;;;;;;;5.00;1.27;;;24.60;86.00;;;;;;5041684;28;20053;-69
2022/09/04 10:58:15;;;;;;;3.20;1.45;;;24.80;87.20;;;;;;5037147;28;20046;-69
2022/09/04 11:00:54;;;;;;;4.20;1.45;;;25.00;86.40;;;;;;5036740;28;20048;-70
2022/09/04 11:03:50;;;;;;;8.60;7.35;;;25.20;85.50;;;;;;5054435;28;20040;-70
2022/09/04 11:06:39;;;;;;;4.03;1.52;;;25.30;85.50;;;;;;5032216;28;20070;-69
2022/09/04 11:09:30;;;;;;;5.35;1.55;;;25.40;85.80;;;;;;5039319;28;20043;-69
2022/09/04 11:12:23;;;;;;;2.72;1.27;;;25.40;84.60;;;;;;5047482;28;20041;-70
2022/09/04 11:15:02;;;;;;;2.35;1.33;;;25.50;85.50;;;;;;5036136;28;20485;-69
2022/09/04 11:18:05;;;;;;;3.05;1.40;;;25.60;86.10;;;;;;5036239;28;20052;-69
2022/09/04 11:20:54;;;;;;;2.90;1.33;;;25.70;84.50;;;;;;5036251;28;20065;-69
2022/09/04 11:24:03;;;;;;;2.83;1.25;;;25.60;84.30;;;;;;5035418;28;20045;-69
2022/09/04 11:26:38;;;;;;;4.00;1.70;;;25.70;85.30;;;;;;5038876;28;20076;-69
2022/09/04 11:29:21;;;;;;;4.40;1.60;;;25.80;85.50;;;;;;5035226;28;20058;-69
2022/09/04 11:32:11;;;;;;;5.35;1.30;;;25.70;84.50;;;;;;5026605;28;20041;-69
2022/09/04 11:35:12;;;;;;;5.28;1.50;;;25.90;85.10;;;;;;5035778;28;20118;-69
2022/09/04 11:37:55;;;;;;;4.57;1.80;;;26.10;84.70;;;;;;5035833;28;20348;-70
2022/09/04 11:40:41;;;;;;;3.70;1.50;;;26.00;83.60;;;;;;5046090;28;20057;-70
2022/09/04 11:43:49;;;;;;;2.88;1.30;;;26.10;83.60;;;;;;5054526;28;20350;-69
2022/09/04 11:46:51;;;;;;;3.88;1.40;;;26.10;83.40;;;;;;5054028;28;20041;-68
2022/09/04 11:49:44;;;;;;;5.50;1.73;;;26.10;84.90;;;;;;5054741;28;20056;-69
2022/09/04 11:52:51;;;;;;;2.70;1.30;;;26.30;85.00;;;;;;5048789;28;20052;-69
2022/09/04 11:55:48;;;;;;;7.60;1.77;;;26.30;83.60;;;;;;5035293;28;20104;-69
2022/09/04 11:58:38;;;;;;;3.33;1.27;;;26.10;84.50;;;;;;5038013;28;20037;-70
2022/09/04 12:01:25;;;;;;;3.42;1.45;;;26.10;84.80;;;;;;5035526;28;20343;-70
2022/09/04 12:04:21;;;;;;;2.72;1.30;;;26.20;84.80;;;;;;5035411;28;20464;-69
2022/09/04 12:07:14;;;;;;;4.38;1.50;;;26.40;84.70;;;;;;5035292;28;20053;-69
2022/09/04 12:09:50;;;;;;;8.48;1.75;;;26.40;85.10;;;;;;5035225;28;20060;-69
2022/09/04 12:12:26;;;;;;;5.35;1.90;;;26.50;85.50;;;;;;5037159;28;20037;-69
2022/09/04 12:15:28;;;;;;;3.70;1.33;;;26.70;85.40;;;;;;5035375;28;20060;-70
2022/09/04 12:18:02;;;;;;;2.42;1.33;;;26.80;85.20;;;;;;5035624;28;20053;-69
2022/09/04 12:21:05;;;;;;;4.22;1.15;;;27.00;84.80;;;;;;5035809;28;20057;-71
2022/09/04 12:23:51;;;;;;;2.30;1.20;;;27.10;83.60;;;;;;5035600;28;20041;-70
2022/09/04 12:26:38;;;;;;;3.50;1.27;;;27.00;84.70;;;;;;5042764;28;20037;-70
2022/09/04 12:29:18;;;;;;;4.20;1.48;;;27.00;84.30;;;;;;5043056;28;20041;-70
2022/09/04 12:32:02;;;;;;;17.60;10.75;;;26.90;85.00;;;;;;5043922;28;20037;-71
2022/09/04 12:34:46;;;;;;;14.52;6.95;;;27.00;84.50;;;;;;5042486;28;20055;-69
2022/09/04 12:37:18;;;;;;;46.10;38.55;;;27.00;84.80;;;;;;5037793;28;20124;-70
2022/09/04 12:40:05;;;;;;;5.18;3.13;;;27.10;85.10;;;;;;5054816;28;20076;-72
2022/09/04 12:43:06;;;;;;;10.10;2.47;;;27.10;84.40;;;;;;5051903;28;20055;-70
2022/09/04 12:45:41;;;;;;;6.40;3.03;;;27.10;83.90;;;;;;5053431;28;20330;-72
2022/09/04 12:48:20;;;;;;;8.95;3.92;;;27.10;84.10;;;;;;5054345;28;20457;-70
2022/09/04 12:51:15;;;;;;;6.60;1.67;;;27.10;84.20;;;;;;5046821;28;20125;-71
2022/09/04 12:54:13;;;;;;;3.38;1.40;;;27.20;84.10;;;;;;5034821;28;20076;-71
2022/09/04 12:56:55;;;;;;;3.90;1.92;;;27.40;84.70;;;;;;5038428;28;20055;-72
2022/09/04 12:59:51;;;;;;;6.05;2.25;;;27.70;84.50;;;;;;5034827;28;20050;-72
2022/09/04 13:02:32;;;;;;;6.93;4.85;;;27.70;84.10;;;;;;5045254;28;20049;-72
2022/09/04 13:05:02;;;;;;;27.10;20.35;;;27.60;82.90;;;;;;5047240;28;20378;-72
2022/09/04 13:08:07;;;;;;;4.45;2.33;;;27.60;82.80;;;;;;5036276;28;20489;-72
2022/09/04 13:10:54;;;;;;;4.18;2.00;;;27.60;83.60;;;;;;5044293;28;20115;-71
2022/09/04 13:13:40;;;;;;;3.97;1.63;;;27.50;83.40;;;;;;5053451;28;20411;-73
2022/09/04 13:16:32;;;;;;;4.15;1.60;;;27.50;83.50;;;;;;5046992;28;20102;-71
2022/09/04 13:19:16;;;;;;;3.53;1.67;;;27.40;83.40;;;;;;5053554;28;20422;-73
2022/09/04 13:22:07;;;;;;;5.60;1.50;;;27.40;84.00;;;;;;5053409;28;20156;-74
2022/09/04 13:24:41;;;;;;;3.80;1.42;;;27.40;83.70;;;;;;5053459;28;20071;-71
2022/09/04 13:27:37;;;;;;;3.17;1.50;;;27.30;83.00;;;;;;5052231;28;20354;-73
2022/09/04 13:30:20;;;;;;;7.28;2.78;;;27.20;82.90;;;;;;5042037;28;20412;-70
2022/09/04 13:33:08;;;;;;;45.63;29.63;;;27.20;83.50;;;;;;5002613;28;20067;-71
2022/09/04 13:35:54;;;;;;;94.10;56.55;;;27.20;83.70;;;;;;5047429;28;20057;-71
2022/09/04 13:38:23;;;;;;;55.33;32.55;;;27.20;83.60;;;;;;5034869;28;20081;-71
2022/09/04 13:41:07;;;;;;;11.57;5.68;;;27.20;83.80;;;;;;5034114;28;20140;-72
2022/09/04 13:43:58;;;;;;;18.42;11.23;;;27.20;83.50;;;;;;5021492;28;20042;-70
2022/09/04 13:46:28;;;;;;;60.90;37.50;;;27.20;83.50;;;;;;5025132;28;20509;-72
2022/09/04 13:49:03;;;;;;;20.23;12.68;;;27.20;84.10;;;;;;5038365;28;20376;-70
2022/09/04 13:51:34;;;;;;;9.63;4.35;;;27.20;83.90;;;;;;5019908;28;20055;-70
2022/09/04 13:54:23;;;;;;;8.63;3.83;;;27.10;83.20;;;;;;5034844;28;20088;-72
2022/09/04 13:56:57;;;;;;;13.13;5.43;;;27.20;83.60;;;;;;5038765;28;20045;-71
2022/09/04 13:59:23;;;;;;;6.07;2.60;;;27.20;83.40;;;;;;5051260;28;20087;-71
2022/09/04 14:01:57;;;;;;;7.35;1.83;;;27.20;84.20;;;;;;5053394;28;20076;-71
2022/09/04 14:04:25;;;;;;;2.63;1.27;;;27.30;84.20;;;;;;5053975;28;20510;-70
2022/09/04 14:07:05;;;;;;;3.90;1.33;;;27.30;84.10;;;;;;5050260;28;20053;-71
2022/09/04 14:09:36;;;;;;;3.13;1.52;;;27.30;84.00;;;;;;5049420;28;20701;-69
2022/09/04 14:12:09;;;;;;;3.90;1.73;;;27.40;84.00;;;;;;5055565;28;20103;-72
2022/09/04 14:14:58;;;;;;;3.55;1.50;;;27.40;83.30;;;;;;5054858;28;20041;-72
2022/09/04 14:17:48;;;;;;;3.72;1.50;;;27.40;83.80;;;;;;5037127;28;20050;-70
2022/09/04 14:20:20;;;;;;;3.97;1.40;;;27.50;83.20;;;;;;5055689;28;20187;-69